createdAt,value
2019-01-19T00:02:23.681Z,23.02
2019-01-19T00:06:23.334Z,19.50
2019-01-19T00:09:42.015Z,18.40
2019-01-19T00:13:36.446Z,18.05
2019-01-19T00:17:45.139Z,18.90
2019-01-19T00:21:42.092Z,21.48
2019-01-19T00:25:23.720Z,17.85
2019-01-19T00:28:45.210Z,19.32
2019-01-19T00:32:25.101Z,18.05
2019-01-19T00:36:11.499Z,18.07
2019-01-19T00:40:28.770Z,20.50
2019-01-19T00:43:59.470Z,19.52
2019-01-19T00:47:39.008Z,18.30
2019-01-19T00:51:51.308Z,19.35
2019-01-19T00:56:15.470Z,22.30
2019-01-19T00:59:31.509Z,18.40
2019-01-19T01:03:40.582Z,18.20
2019-01-19T01:07:40.683Z,19.50
2019-01-19T01:11:32.005Z,18.20
2019-01-19T01:15:53.411Z,18.57
2019-01-19T01:19:59.071Z,17.92
2019-01-19T01:23:58.840Z,18.15
2019-01-19T01:28:13.028Z,18.85
2019-01-19T01:32:13.989Z,17.73
2019-01-19T01:36:29.275Z,19.20
2019-01-19T01:40:19.873Z,19.40
2019-01-19T01:44:00.431Z,18.40
2019-01-19T01:47:55.996Z,18.52
2019-01-19T01:51:37.614Z,17.82
2019-01-19T01:55:16.745Z,23.73
2019-01-19T01:59:03.518Z,19.35
2019-01-19T02:03:15.941Z,20.27
2019-01-19T02:06:56.672Z,17.35
2019-01-19T02:10:34.080Z,20.68
2019-01-19T02:14:03.276Z,18.48
2019-01-19T02:18:13.274Z,19.30
2019-01-19T02:22:01.860Z,24.55
2019-01-19T02:25:58.714Z,17.82
2019-01-19T02:30:08.433Z,17.77
2019-01-19T02:33:57.646Z,17.27
2019-01-19T02:38:04.802Z,19.35
2019-01-19T02:42:24.288Z,17.75
2019-01-19T02:46:30.191Z,17.73
2019-01-19T02:50:25.805Z,18.70
2019-01-19T02:54:31.152Z,17.73
2019-01-19T02:58:09.396Z,17.98
2019-01-19T03:02:02.820Z,25.85
2019-01-19T03:05:56.142Z,18.00
2019-01-19T03:10:02.076Z,19.55
2019-01-19T03:14:12.098Z,20.65
2019-01-19T03:18:09.166Z,19.85
2019-01-19T03:22:11.901Z,18.00
2019-01-19T03:26:05.243Z,17.62
2019-01-19T03:29:55.070Z,19.40
2019-01-19T03:33:42.075Z,18.05
2019-01-19T03:37:39.003Z,17.77
2019-01-19T03:41:53.426Z,17.57
2019-01-19T03:45:42.691Z,18.75
2019-01-19T03:50:01.517Z,18.15
2019-01-19T03:53:56.144Z,17.52
2019-01-19T03:58:01.907Z,18.40
2019-01-19T04:02:09.739Z,18.00
2019-01-19T04:06:14.635Z,17.55
2019-01-19T04:10:14.101Z,19.05
2019-01-19T04:14:30.852Z,18.70
2019-01-19T04:18:20.409Z,21.05
2019-01-19T04:22:05.419Z,17.48
2019-01-19T04:26:08.215Z,18.50
2019-01-19T04:29:15.667Z,17.65
2019-01-19T04:32:22.559Z,18.80
2019-01-19T04:35:29.482Z,18.40
2019-01-19T04:38:38.039Z,17.55
2019-01-19T04:41:45.047Z,17.77
2019-01-19T04:44:51.930Z,17.50
2019-01-19T04:47:58.861Z,17.60
2019-01-19T04:51:06.035Z,17.60
2019-01-19T04:54:13.205Z,17.55
2019-01-19T04:57:20.102Z,19.17
2019-01-19T05:00:27.034Z,18.85
2019-01-19T05:03:33.919Z,17.60
2019-01-19T05:06:40.858Z,17.90
2019-01-19T05:09:47.866Z,17.60
2019-01-19T05:12:54.812Z,17.50
2019-01-19T05:16:01.779Z,19.40
2019-01-19T05:19:08.693Z,18.20
2019-01-19T05:22:15.632Z,17.50
2019-01-19T05:25:22.559Z,17.62
2019-01-19T05:28:29.444Z,17.85
2019-01-19T05:31:36.470Z,18.10
2019-01-19T05:34:43.826Z,17.50
2019-01-19T05:37:50.765Z,17.70
2019-01-19T05:40:57.657Z,17.92
2019-01-19T05:44:04.586Z,17.62
2019-01-19T05:47:11.654Z,18.23
2019-01-19T05:50:23.576Z,17.65
2019-01-19T05:53:30.798Z,18.35
2019-01-19T05:56:37.730Z,18.75
2019-01-19T05:59:44.613Z,17.73
2019-01-19T06:02:51.553Z,17.50
2019-01-19T06:05:58.811Z,17.48
2019-01-19T06:09:08.947Z,17.50
2019-01-19T06:12:15.964Z,17.50
2019-01-19T06:15:23.394Z,17.67
2019-01-19T06:18:32.265Z,17.87
2019-01-19T06:21:47.896Z,18.73
2019-01-19T06:24:54.797Z,18.17
2019-01-19T06:28:01.725Z,17.60
2019-01-19T06:31:08.736Z,18.35
2019-01-19T06:34:15.781Z,19.48
2019-01-19T06:37:22.823Z,17.95
2019-01-19T06:40:29.760Z,18.32
2019-01-19T06:43:36.641Z,17.55
2019-01-19T06:46:43.567Z,17.80
2019-01-19T06:49:50.446Z,17.70
2019-01-19T06:52:57.366Z,17.60
2019-01-19T06:56:04.529Z,17.73
2019-01-19T06:59:17.386Z,17.85
2019-01-19T07:02:20.108Z,17.45
2019-01-19T07:05:27.040Z,19.25
2019-01-19T07:08:33.935Z,28.38
2019-01-19T07:11:41.376Z,21.87
2019-01-19T07:14:48.260Z,18.80
2019-01-19T07:17:55.217Z,19.23
2019-01-19T07:21:02.119Z,17.55
2019-01-19T07:24:09.051Z,17.80
2019-01-19T07:27:17.117Z,21.07
2019-01-19T07:30:24.053Z,19.12
2019-01-19T07:33:31.052Z,18.15
2019-01-19T07:36:38.016Z,17.42
2019-01-19T07:39:44.911Z,19.10
2019-01-19T07:42:56.791Z,18.65
2019-01-19T07:46:05.133Z,18.12
2019-01-19T07:49:14.661Z,17.95
2019-01-19T07:52:21.569Z,17.70
2019-01-19T07:55:28.472Z,20.90
2019-01-19T07:58:36.585Z,17.75
2019-01-19T08:01:43.582Z,25.88
2019-01-19T08:04:50.490Z,18.05
2019-01-19T08:07:57.446Z,19.25
2019-01-19T08:11:04.473Z,19.85
2019-01-19T08:14:12.841Z,18.48
2019-01-19T08:17:19.733Z,18.05
2019-01-19T08:20:26.724Z,18.23
2019-01-19T08:23:35.321Z,17.85
2019-01-19T08:26:42.604Z,18.27
2019-01-19T08:29:49.977Z,22.67
2019-01-19T08:32:57.156Z,19.55
2019-01-19T08:36:04.854Z,18.15
2019-01-19T08:39:12.449Z,17.73
2019-01-19T08:42:36.573Z,18.70
2019-01-19T08:45:45.265Z,22.00
2019-01-19T08:48:52.634Z,20.43
2019-01-19T08:51:59.871Z,18.15
2019-01-19T08:55:23.558Z,18.77
2019-01-19T08:58:33.072Z,19.42
2019-01-19T09:01:55.073Z,18.75
2019-01-19T09:05:05.311Z,17.87
2019-01-19T09:08:15.595Z,18.48
2019-01-19T09:11:23.784Z,22.60
2019-01-19T09:14:31.061Z,19.50
2019-01-19T09:17:45.538Z,19.23
2019-01-19T09:24:44.209Z,19.80
2019-01-19T09:27:51.118Z,18.25
2019-01-19T09:30:58.119Z,18.95
2019-01-19T09:34:05.428Z,18.95
2019-01-19T09:37:12.555Z,22.22
2019-01-19T09:40:20.028Z,18.80
2019-01-19T09:43:27.204Z,19.10
2019-01-19T09:46:34.114Z,18.90
2019-01-19T09:49:41.862Z,17.77
2019-01-19T09:52:48.775Z,19.75
2019-01-19T09:55:55.848Z,18.12
2019-01-19T09:59:02.757Z,19.62
2019-01-19T10:02:12.508Z,22.13
2019-01-19T10:05:22.104Z,20.45
2019-01-19T10:08:29.020Z,21.95
2019-01-19T10:11:36.189Z,19.37
2019-01-19T10:14:43.185Z,18.90
2019-01-19T10:17:50.166Z,18.05
2019-01-19T10:20:57.597Z,20.08
2019-01-19T10:24:04.670Z,20.50
2019-01-19T10:27:13.490Z,20.20
2019-01-19T10:30:24.569Z,20.30
2019-01-19T10:33:32.702Z,20.68
2019-01-19T10:36:39.878Z,19.57
2019-01-19T10:39:47.228Z,21.15
2019-01-19T10:42:54.207Z,19.00
2019-01-19T10:46:03.860Z,22.40
2019-01-19T10:49:15.089Z,18.23
2019-01-19T10:52:23.158Z,20.27
2019-01-19T10:55:33.154Z,19.35
2019-01-19T10:58:42.040Z,18.30
2019-01-19T11:01:50.665Z,19.57
2019-01-19T11:05:00.299Z,20.72
2019-01-19T11:08:12.280Z,19.60
2019-01-19T11:11:21.171Z,21.62
2019-01-19T11:14:29.955Z,19.30
2019-01-19T11:17:37.699Z,19.20
2019-01-19T11:20:44.628Z,20.52
2019-01-19T11:23:51.719Z,27.70
2019-01-19T11:26:58.757Z,23.50
2019-01-19T11:30:06.887Z,18.75
2019-01-19T11:33:14.384Z,19.07
2019-01-19T11:36:23.823Z,19.80
2019-01-19T11:39:31.085Z,19.45
2019-01-19T11:42:38.012Z,20.30
2019-01-19T11:45:46.747Z,20.92
2019-01-19T11:48:54.362Z,21.50
2019-01-19T11:52:01.266Z,18.40
2019-01-19T11:55:11.182Z,21.15
2019-01-19T11:58:19.423Z,20.95
2019-01-19T12:01:26.421Z,18.90
2019-01-19T12:04:33.295Z,21.17
2019-01-19T12:07:41.561Z,19.90
2019-01-19T12:10:48.599Z,19.32
2019-01-19T12:13:56.384Z,19.65
2019-01-19T12:17:03.263Z,20.45
2019-01-19T12:20:19.877Z,20.90
2019-01-19T12:23:26.795Z,20.82
2019-01-19T12:26:33.847Z,19.62
2019-01-19T12:29:40.734Z,20.60
2019-01-19T12:32:47.705Z,20.27
2019-01-19T12:35:54.718Z,19.67
2019-01-19T12:39:01.658Z,18.35
2019-01-19T12:42:09.806Z,19.00
2019-01-19T12:45:27.986Z,19.98
2019-01-19T12:48:34.895Z,21.62
2019-01-19T12:51:42.397Z,17.95
2019-01-19T12:54:49.531Z,19.25
2019-01-19T12:57:56.616Z,18.12
2019-01-19T13:01:03.959Z,19.75
2019-01-19T13:04:11.976Z,19.00
2019-01-19T13:07:19.240Z,21.15
2019-01-19T13:10:40.713Z,19.65
2019-01-19T13:13:52.244Z,19.00
2019-01-19T13:17:49.608Z,18.05
2019-01-19T13:22:00.593Z,18.73
2019-01-19T13:25:49.034Z,18.82
2019-01-19T13:29:47.361Z,17.65
2019-01-19T13:33:55.325Z,21.10
2019-01-19T13:38:02.402Z,18.17
2019-01-19T13:41:56.389Z,17.90
2019-01-19T13:46:00.304Z,19.32
2019-01-19T13:49:58.376Z,18.50
2019-01-19T13:54:20.807Z,20.02
2019-01-19T13:58:02.183Z,18.75
2019-01-19T14:02:01.830Z,21.65
2019-01-19T14:05:56.506Z,21.35
2019-01-19T14:09:51.030Z,24.65
2019-01-19T14:13:51.216Z,23.60
2019-01-19T14:18:19.495Z,23.12
2019-01-19T14:22:15.804Z,20.80
2019-01-19T14:26:33.463Z,18.60
2019-01-19T14:30:38.952Z,19.30
2019-01-19T14:34:20.031Z,22.13
2019-01-19T14:38:25.246Z,20.17
2019-01-19T14:42:27.136Z,18.32
2019-01-19T14:46:16.508Z,19.73
2019-01-19T14:50:31.910Z,20.75
2019-01-19T14:54:37.291Z,19.40
2019-01-19T14:58:36.240Z,21.85
2019-01-19T15:02:51.553Z,19.92
2019-01-19T15:07:01.506Z,23.73
2019-01-19T15:10:53.029Z,24.80
2019-01-19T15:14:50.637Z,17.70
2019-01-19T15:18:57.184Z,19.42
2019-01-19T15:22:50.629Z,22.10
2019-01-19T15:27:21.849Z,20.02
2019-01-19T15:31:08.013Z,19.27
2019-01-19T15:35:19.011Z,22.50
2019-01-19T15:39:40.963Z,19.95
2019-01-19T15:43:34.722Z,18.73
2019-01-19T15:47:30.966Z,19.90
2019-01-19T15:51:33.600Z,20.55
2019-01-19T15:55:11.334Z,18.85
2019-01-19T15:59:14.350Z,21.70
2019-01-19T16:03:42.632Z,20.00
2019-01-19T16:07:21.326Z,19.40
2019-01-19T16:11:55.801Z,24.35
2019-01-19T16:16:13.610Z,24.40
2019-01-19T16:20:17.486Z,20.85
2019-01-19T16:24:12.393Z,19.20
2019-01-19T16:28:27.246Z,21.95
2019-01-19T16:32:19.668Z,20.05
2019-01-19T16:35:55.888Z,21.02
2019-01-19T16:40:09.061Z,21.75
2019-01-19T16:43:53.706Z,20.43
2019-01-19T16:47:50.904Z,19.65
2019-01-19T16:52:03.510Z,18.82
2019-01-19T16:56:01.325Z,18.60
2019-01-19T17:00:09.401Z,20.88
2019-01-19T17:04:02.280Z,21.95
2019-01-19T17:08:04.027Z,21.73
2019-01-19T17:12:22.255Z,28.15
2019-01-19T17:16:05.099Z,19.15
2019-01-19T17:19:57.099Z,18.40
2019-01-19T17:23:34.219Z,18.60
2019-01-19T17:27:25.874Z,17.95
2019-01-19T17:31:34.193Z,19.35
2019-01-19T17:35:33.419Z,18.50
2019-01-19T17:39:29.215Z,20.70
2019-01-19T17:44:06.571Z,20.88
2019-01-19T17:47:45.046Z,21.80
2019-01-19T17:51:44.683Z,20.68
2019-01-19T17:55:57.396Z,20.68
2019-01-19T18:00:02.357Z,24.67
2019-01-19T18:03:49.156Z,21.95
2019-01-19T18:08:01.544Z,26.77
2019-01-19T18:12:20.109Z,20.25
2019-01-19T18:16:29.534Z,20.27
2019-01-19T18:20:13.991Z,20.92
2019-01-19T18:24:25.914Z,23.18
2019-01-19T18:28:30.712Z,21.17
2019-01-19T18:32:39.746Z,21.15
2019-01-19T18:36:30.287Z,21.70
2019-01-19T18:40:36.678Z,25.62
2019-01-19T18:44:39.400Z,21.93
2019-01-19T18:48:47.219Z,22.55
2019-01-19T18:52:37.479Z,29.02
2019-01-19T18:56:46.441Z,24.87
2019-01-19T19:00:47.980Z,22.00
2019-01-19T19:04:55.221Z,22.02
2019-01-19T19:08:40.256Z,24.20
2019-01-19T19:12:47.107Z,24.67
2019-01-19T19:16:35.926Z,27.13
2019-01-19T19:20:10.156Z,23.10
2019-01-19T19:24:08.531Z,21.50
2019-01-19T19:28:08.998Z,25.48
2019-01-19T19:32:00.779Z,27.02
2019-01-19T19:36:18.970Z,33.23
2019-01-19T19:40:24.264Z,20.65
2019-01-19T19:44:12.263Z,23.90
2019-01-19T19:48:05.608Z,24.65
2019-01-19T19:52:07.311Z,27.52
2019-01-19T19:55:12.725Z,21.45
2019-01-19T19:58:20.293Z,21.90
2019-01-19T20:01:28.081Z,23.80
2019-01-19T20:04:35.966Z,23.30
2019-01-19T20:07:44.374Z,24.65
2019-01-19T20:10:52.789Z,25.60
2019-01-19T20:14:01.454Z,32.58
2019-01-19T20:17:10.785Z,24.52
2019-01-19T20:20:18.376Z,34.90
2019-01-19T20:23:27.399Z,25.30
2019-01-19T20:26:35.448Z,25.85
2019-01-19T20:29:44.008Z,24.10
2019-01-19T20:32:52.131Z,21.95
2019-01-19T20:36:03.264Z,28.67
2019-01-19T20:39:13.036Z,30.70
2019-01-19T20:42:23.489Z,24.87
2019-01-19T20:45:31.756Z,30.43
2019-01-19T20:48:40.062Z,31.97
2019-01-19T20:51:51.301Z,26.42
2019-01-19T20:55:10.342Z,26.35
2019-01-19T20:58:17.968Z,29.23
2019-01-19T21:01:25.685Z,23.40
2019-01-19T21:04:34.450Z,21.93
2019-01-19T21:07:42.681Z,23.30
2019-01-19T21:10:50.822Z,25.75
2019-01-19T21:13:59.678Z,20.88
2019-01-19T21:17:08.226Z,23.47
2019-01-19T21:20:17.524Z,20.37
2019-01-19T21:23:25.930Z,23.10
2019-01-19T21:26:35.002Z,31.20
2019-01-19T21:29:44.238Z,20.90
2019-01-19T21:32:52.740Z,21.42
2019-01-19T21:36:00.600Z,23.22
2019-01-19T21:39:10.383Z,24.27
2019-01-19T21:42:18.582Z,22.87
2019-01-19T21:45:26.617Z,22.80
2019-01-19T21:48:34.523Z,28.83
2019-01-19T21:51:44.417Z,22.27
2019-01-19T21:54:52.379Z,21.33
2019-01-19T21:58:00.218Z,22.05
2019-01-19T22:01:08.915Z,24.87
2019-01-19T22:04:20.145Z,23.32
2019-01-19T22:07:28.300Z,35.43
2019-01-19T22:10:36.375Z,25.30
2019-01-19T22:13:43.928Z,21.82
2019-01-19T22:16:52.405Z,28.12
2019-01-19T22:20:00.460Z,30.85
2019-01-19T22:23:08.369Z,21.97
2019-01-19T22:26:18.601Z,26.45
2019-01-19T22:29:26.471Z,24.27
2019-01-19T22:32:34.624Z,22.25
2019-01-19T22:35:43.086Z,23.12
2019-01-19T22:38:51.482Z,25.45
2019-01-19T22:42:00.172Z,25.52
2019-01-19T22:45:11.451Z,22.13
2019-01-19T22:48:19.449Z,23.15
2019-01-19T22:51:27.955Z,22.25
2019-01-19T22:54:36.230Z,25.65
2019-01-19T22:57:44.522Z,29.63
2019-01-19T23:01:39.646Z,25.85
2019-01-19T23:04:48.003Z,22.60
2019-01-19T23:07:56.036Z,25.35
2019-01-19T23:11:03.271Z,23.30
2019-01-19T23:14:13.029Z,22.42
2019-01-19T23:17:20.644Z,28.27
2019-01-19T23:20:28.608Z,25.25
2019-01-19T23:23:37.642Z,27.05
2019-01-19T23:26:46.298Z,25.05
2019-01-19T23:29:54.205Z,27.60
2019-01-19T23:33:03.436Z,23.67
2019-01-19T23:36:11.358Z,27.02
2019-01-19T23:39:19.396Z,27.77
2019-01-19T23:42:28.635Z,29.50
2019-01-19T23:45:36.381Z,22.93
2019-01-19T23:48:44.662Z,22.27
2019-01-19T23:51:52.663Z,30.60
2019-01-19T23:55:00.713Z,22.27
2019-01-19T23:58:08.665Z,23.95
